createdAt,value
2022-12-05T00:00:16.673Z,0.00
2022-12-05T00:01:16.875Z,0.00
2022-12-05T00:02:17.133Z,0.00
2022-12-05T00:03:17.227Z,0.00
2022-12-05T00:04:17.432Z,0.00
2022-12-05T00:05:17.532Z,0.00
2022-12-05T00:06:17.708Z,0.00
2022-12-05T00:07:17.848Z,0.00
2022-12-05T00:08:18.764Z,0.00
2022-12-05T00:09:18.225Z,0.00
2022-12-05T00:10:19.213Z,0.00
2022-12-05T00:11:18.624Z,0.00
2022-12-05T00:12:19.346Z,0.00
2022-12-05T00:13:19.932Z,0.00
2022-12-05T00:14:19.712Z,0.00
2022-12-05T00:15:19.226Z,0.00
2022-12-05T00:16:19.532Z,0.00
2022-12-05T00:17:19.529Z,0.00
2022-12-05T00:18:19.701Z,0.00
2022-12-05T00:19:20.715Z,0.00
2022-12-05T00:20:20.719Z,0.00
2022-12-05T00:21:20.249Z,0.00
2022-12-05T00:22:21.215Z,0.00
2022-12-05T00:23:20.584Z,0.00
2022-12-05T00:24:20.747Z,0.00
2022-12-05T00:25:21.876Z,0.00
2022-12-05T00:26:21.130Z,0.00
2022-12-05T00:27:21.274Z,0.00
2022-12-05T00:28:21.479Z,0.00
2022-12-05T00:29:21.615Z,0.00
2022-12-05T00:30:21.766Z,0.00
2022-12-05T00:31:21.974Z,0.00
2022-12-05T00:32:22.220Z,0.00
2022-12-05T00:33:22.294Z,0.00
2022-12-05T00:34:22.441Z,0.00
2022-12-05T00:35:22.634Z,0.00
2022-12-05T00:36:23.233Z,0.00
2022-12-05T00:37:23.017Z,0.00
2022-12-05T00:38:23.203Z,0.00
2022-12-05T00:39:24.229Z,0.00
2022-12-05T00:40:23.473Z,0.00
2022-12-05T00:41:23.622Z,0.00
2022-12-05T00:42:23.780Z,0.00
2022-12-05T00:43:24.241Z,0.00
2022-12-05T00:44:24.151Z,0.00
2022-12-05T00:45:25.217Z,0.00
2022-12-05T00:46:25.263Z,0.00
2022-12-05T00:47:25.623Z,0.00
2022-12-05T00:48:24.769Z,0.00
2022-12-05T00:49:24.950Z,0.00
2022-12-05T00:50:25.731Z,0.00
2022-12-05T00:51:25.272Z,0.00
2022-12-05T00:52:25.445Z,0.00
2022-12-05T00:53:25.606Z,0.00
2022-12-05T00:54:25.793Z,0.00
2022-12-05T00:55:25.954Z,0.00
2022-12-05T00:56:26.144Z,0.00
2022-12-05T00:57:26.307Z,0.00
2022-12-05T00:58:26.479Z,0.00
2022-12-05T00:59:26.653Z,0.00
2022-12-05T01:00:26.832Z,0.00
2022-12-05T01:01:27.308Z,0.00
2022-12-05T01:02:27.159Z,0.00
2022-12-05T01:03:27.341Z,0.00
2022-12-05T01:04:28.223Z,0.00
2022-12-05T01:05:27.751Z,0.00
2022-12-05T01:06:27.947Z,0.00
2022-12-05T01:07:28.097Z,0.00
2022-12-05T01:08:29.266Z,0.00
2022-12-05T01:09:28.733Z,0.00
2022-12-05T01:10:28.504Z,0.00
2022-12-05T01:11:28.682Z,0.00
2022-12-05T01:12:28.836Z,0.00
2022-12-05T01:13:29.724Z,0.00
2022-12-05T01:14:29.279Z,0.00
2022-12-05T01:15:29.435Z,0.00
2022-12-05T01:16:29.668Z,0.00
2022-12-05T01:17:29.747Z,0.00
2022-12-05T01:18:29.955Z,0.00
2022-12-05T01:19:30.121Z,0.00
2022-12-05T01:20:30.309Z,0.00
2022-12-05T01:21:30.488Z,0.00
2022-12-05T01:22:30.644Z,0.00
2022-12-05T01:23:30.840Z,0.00
2022-12-05T01:24:31.013Z,0.00
2022-12-05T01:25:31.185Z,0.00
2022-12-05T01:26:32.224Z,0.00
2022-12-05T01:27:31.493Z,0.00
2022-12-05T01:28:31.723Z,0.00
2022-12-05T01:29:31.899Z,0.00
2022-12-05T01:30:32.095Z,0.00
2022-12-05T01:31:32.364Z,0.00
2022-12-05T01:32:32.504Z,0.00
2022-12-05T01:33:33.225Z,0.00
2022-12-05T01:34:32.893Z,0.00
2022-12-05T01:35:33.067Z,0.00
2022-12-05T01:36:33.239Z,0.00
2022-12-05T01:37:33.410Z,0.00
2022-12-05T01:38:33.567Z,0.00
2022-12-05T01:39:33.743Z,0.00
2022-12-05T01:40:33.894Z,0.00
2022-12-05T01:41:34.050Z,0.00
2022-12-05T01:42:34.246Z,0.00
2022-12-05T01:43:34.403Z,0.00
2022-12-05T01:44:34.560Z,0.00
2022-12-05T01:45:34.783Z,0.00
2022-12-05T01:46:34.837Z,0.00
2022-12-05T01:47:35.018Z,0.00
2022-12-05T01:48:35.176Z,0.00
2022-12-05T01:49:35.397Z,0.00
2022-12-05T01:50:36.230Z,0.00
2022-12-05T01:51:35.742Z,0.00
2022-12-05T01:52:35.907Z,0.00
2022-12-05T01:53:36.050Z,0.00
2022-12-05T01:54:36.729Z,0.00
2022-12-05T01:55:36.352Z,0.00
2022-12-05T01:56:36.743Z,0.00
2022-12-05T01:57:36.673Z,0.00
2022-12-05T01:58:36.913Z,0.00
2022-12-05T01:59:37.069Z,0.00
2022-12-05T02:00:37.198Z,0.00
2022-12-05T02:01:38.332Z,0.00
2022-12-05T02:02:37.685Z,0.00
2022-12-05T02:03:37.740Z,0.00
2022-12-05T02:04:38.732Z,0.00
2022-12-05T02:05:38.724Z,0.00
2022-12-05T02:06:39.320Z,0.00
2022-12-05T02:07:38.681Z,0.00
2022-12-05T02:08:38.686Z,0.00
2022-12-05T02:09:39.737Z,0.00
2022-12-05T02:10:38.980Z,0.00
2022-12-05T02:11:39.106Z,0.00
2022-12-05T02:12:39.350Z,0.00
2022-12-05T02:13:39.483Z,0.00
2022-12-05T02:14:39.644Z,0.00
2022-12-05T02:15:39.770Z,0.00
2022-12-05T02:16:39.996Z,0.00
2022-12-05T02:17:40.070Z,0.00
2022-12-05T02:18:40.219Z,0.00
2022-12-05T02:19:40.351Z,0.00
2022-12-05T02:20:40.474Z,0.00
2022-12-05T02:21:40.614Z,0.00
2022-12-05T02:22:40.790Z,0.00
2022-12-05T02:23:40.940Z,0.00
2022-12-05T02:24:41.076Z,0.00
2022-12-05T02:25:41.212Z,0.00
2022-12-05T02:26:41.338Z,0.00
2022-12-05T02:27:41.517Z,0.00
2022-12-05T02:28:41.659Z,0.00
2022-12-05T02:29:42.249Z,0.00
2022-12-05T02:30:41.997Z,0.00
2022-12-05T02:31:42.236Z,0.00
2022-12-05T02:32:42.253Z,0.00
2022-12-05T02:33:42.409Z,0.00
2022-12-05T02:34:42.558Z,0.00
2022-12-05T02:35:42.725Z,0.00
2022-12-05T02:36:43.743Z,0.00
2022-12-05T02:37:43.003Z,0.00
2022-12-05T02:38:43.167Z,0.00
2022-12-05T02:39:43.297Z,0.00
2022-12-05T02:40:43.461Z,0.00
2022-12-05T02:41:43.610Z,0.00
2022-12-05T02:42:43.772Z,0.00
2022-12-05T02:43:43.921Z,0.00
2022-12-05T02:44:44.062Z,0.00
2022-12-05T02:45:44.275Z,0.00
2022-12-05T02:46:44.346Z,0.00
2022-12-05T02:47:44.529Z,0.00
2022-12-05T02:48:44.700Z,0.00
2022-12-05T02:49:44.880Z,0.00
2022-12-05T02:50:45.034Z,0.00
2022-12-05T02:51:45.198Z,0.00
2022-12-05T02:52:45.352Z,0.00
2022-12-05T02:53:45.495Z,0.00
2022-12-05T02:54:45.640Z,0.00
2022-12-05T02:55:45.810Z,0.00
2022-12-05T02:56:45.973Z,0.00
2022-12-05T02:57:46.741Z,0.00
2022-12-05T02:58:46.259Z,0.00
2022-12-05T02:59:47.250Z,0.00
2022-12-05T03:00:46.618Z,0.00
2022-12-05T03:01:46.857Z,0.00
2022-12-05T03:02:46.897Z,0.00
2022-12-05T03:03:47.093Z,0.00
2022-12-05T03:04:47.305Z,0.00
2022-12-05T03:05:47.506Z,0.00
2022-12-05T03:06:47.656Z,0.00
2022-12-05T03:07:47.881Z,0.00
2022-12-05T03:08:47.970Z,0.00
2022-12-05T03:09:48.135Z,0.00
2022-12-05T03:10:48.270Z,0.00
2022-12-05T03:11:48.418Z,0.00
2022-12-05T03:12:48.616Z,0.00
2022-12-05T03:13:49.244Z,0.00
2022-12-05T03:14:48.891Z,0.00
2022-12-05T03:15:49.038Z,0.00
2022-12-05T03:16:49.289Z,0.00
2022-12-05T03:17:50.249Z,0.00
2022-12-05T03:18:50.249Z,0.00
2022-12-05T03:19:49.632Z,0.00
2022-12-05T03:20:49.786Z,0.00
2022-12-05T03:21:49.933Z,0.00
2022-12-05T03:22:50.750Z,0.00
2022-12-05T03:23:50.270Z,0.00
2022-12-05T03:24:51.252Z,0.00
2022-12-05T03:25:50.632Z,0.00
2022-12-05T03:26:51.745Z,0.00
2022-12-05T03:27:51.260Z,0.00
2022-12-05T03:28:51.750Z,0.00
2022-12-05T03:29:52.244Z,0.00
2022-12-05T03:30:51.675Z,0.00
2022-12-05T03:31:51.750Z,0.00
2022-12-05T03:32:51.922Z,0.00
2022-12-05T03:33:52.082Z,0.00
2022-12-05T03:34:52.777Z,0.00
2022-12-05T03:35:52.416Z,0.00
2022-12-05T03:36:52.598Z,0.00
2022-12-05T03:37:53.747Z,0.00
2022-12-05T03:38:52.998Z,0.00
2022-12-05T03:39:54.197Z,0.00
2022-12-05T03:40:53.295Z,0.00
2022-12-05T03:41:53.451Z,0.00
2022-12-05T03:42:53.631Z,0.00
2022-12-05T03:43:53.782Z,0.00
2022-12-05T03:44:53.961Z,0.00
2022-12-05T03:45:54.173Z,0.00
2022-12-05T03:46:54.754Z,0.00
2022-12-05T03:47:54.516Z,0.00
2022-12-05T03:48:54.679Z,0.00
2022-12-05T03:49:54.978Z,0.00
2022-12-05T03:50:55.047Z,0.00
2022-12-05T03:51:55.169Z,0.00
2022-12-05T03:53:18.601Z,0.00
2022-12-05T03:53:57.484Z,0.00
2022-12-05T03:54:55.609Z,0.00
2022-12-05T03:55:55.739Z,0.00
2022-12-05T03:56:56.752Z,0.00
2022-12-05T03:57:56.002Z,0.00
2022-12-05T03:58:56.178Z,0.00
2022-12-05T03:59:56.823Z,0.00
2022-12-05T04:00:56.485Z,0.00
2022-12-05T04:01:56.689Z,0.00
2022-12-05T04:02:57.279Z,0.00
2022-12-05T04:03:57.000Z,0.00
2022-12-05T04:04:58.066Z,0.00
2022-12-05T04:05:57.309Z,0.00
2022-12-05T04:06:57.460Z,0.00
2022-12-05T04:07:57.632Z,0.00
2022-12-05T04:08:57.840Z,0.00
2022-12-05T04:09:59.029Z,0.00
2022-12-05T04:10:58.268Z,0.00
2022-12-05T04:11:58.446Z,0.00
2022-12-05T04:12:58.634Z,0.00
2022-12-05T04:13:58.786Z,0.00
2022-12-05T04:14:58.967Z,0.00
2022-12-05T04:15:59.167Z,0.00
2022-12-05T04:16:59.772Z,0.00
2022-12-05T04:17:59.535Z,0.00
2022-12-05T04:18:59.702Z,0.00
2022-12-05T04:20:00.175Z,0.00
2022-12-05T04:21:00.026Z,0.00
2022-12-05T04:22:01.188Z,0.00
2022-12-05T04:23:00.333Z,0.00
2022-12-05T04:24:00.480Z,0.00
2022-12-05T04:25:00.632Z,0.00
2022-12-05T04:26:01.811Z,0.00
2022-12-05T04:27:00.984Z,0.00
2022-12-05T04:28:01.755Z,0.00
2022-12-05T04:29:02.275Z,0.00
2022-12-05T04:30:02.263Z,0.00
2022-12-05T04:31:01.713Z,0.00
2022-12-05T04:32:01.838Z,0.00
2022-12-05T04:33:02.275Z,0.00
2022-12-05T04:34:02.182Z,0.00
2022-12-05T04:35:02.332Z,0.00
2022-12-05T04:36:02.501Z,0.00
2022-12-05T04:37:02.670Z,0.00
2022-12-05T04:38:02.849Z,0.00
2022-12-05T04:39:03.031Z,0.00
2022-12-05T04:40:03.204Z,0.00
2022-12-05T04:41:03.356Z,0.00
2022-12-05T04:42:04.282Z,0.00
2022-12-05T04:43:03.672Z,0.00
2022-12-05T04:44:03.926Z,0.00
2022-12-05T04:45:04.059Z,0.00
2022-12-05T04:46:04.777Z,0.00
2022-12-05T04:47:05.441Z,0.00
2022-12-05T04:48:04.592Z,0.00
2022-12-05T04:49:04.768Z,0.00
2022-12-05T04:50:05.770Z,0.00
2022-12-05T04:51:05.763Z,0.00
2022-12-05T04:52:05.403Z,0.00
2022-12-05T04:53:05.598Z,0.00
2022-12-05T04:54:05.758Z,0.00
2022-12-05T04:55:06.769Z,0.00
2022-12-05T04:56:06.760Z,0.00
2022-12-05T04:57:06.274Z,0.00
2022-12-05T04:58:07.277Z,0.00
2022-12-05T04:59:06.657Z,0.00
2022-12-05T05:00:07.763Z,0.00
2022-12-05T05:01:07.276Z,0.00
2022-12-05T05:02:07.205Z,0.00
2022-12-05T05:03:08.338Z,0.00
2022-12-05T05:04:07.512Z,0.00
2022-12-05T05:05:12.464Z,0.00
2022-12-05T05:06:09.896Z,0.00
2022-12-05T05:07:08.150Z,0.00
2022-12-05T05:08:08.315Z,0.00
2022-12-05T05:09:08.518Z,0.00
2022-12-05T05:10:08.682Z,0.00
2022-12-05T05:11:09.782Z,0.00
2022-12-05T05:12:09.872Z,0.00
2022-12-05T05:13:09.761Z,0.00
2022-12-05T05:14:09.387Z,0.00
2022-12-05T05:15:09.549Z,0.00
2022-12-05T05:16:09.707Z,0.00
2022-12-05T05:17:09.897Z,0.00
2022-12-05T05:18:10.032Z,0.00
2022-12-05T05:19:10.148Z,0.00
2022-12-05T05:20:11.013Z,0.00
2022-12-05T05:21:10.587Z,0.00
2022-12-05T05:22:10.737Z,0.00
2022-12-05T05:23:10.874Z,0.00
2022-12-05T05:24:11.020Z,0.00
2022-12-05T05:25:11.766Z,0.00
2022-12-05T05:26:11.390Z,0.00
2022-12-05T05:27:11.538Z,0.00
2022-12-05T05:28:12.268Z,0.00
2022-12-05T05:29:11.930Z,0.00
2022-12-05T05:30:12.046Z,0.00
2022-12-05T05:31:12.810Z,0.00
2022-12-05T05:32:13.294Z,0.00
2022-12-05T05:33:13.270Z,0.00
2022-12-05T05:34:12.809Z,0.00
2022-12-05T05:35:12.939Z,0.00
2022-12-05T05:36:13.064Z,0.00
2022-12-05T05:37:13.192Z,0.00
2022-12-05T05:38:13.336Z,0.00
2022-12-05T05:39:13.494Z,0.00
2022-12-05T05:40:14.636Z,0.00
2022-12-05T05:41:13.782Z,0.00
2022-12-05T05:42:14.785Z,0.00
2022-12-05T05:43:14.157Z,0.00
2022-12-05T05:44:15.270Z,0.00
2022-12-05T05:45:14.567Z,0.00
2022-12-05T05:46:14.771Z,0.00
2022-12-05T05:47:14.949Z,0.00
2022-12-05T05:48:15.095Z,0.00
2022-12-05T05:49:15.230Z,0.00
2022-12-05T05:50:21.441Z,0.00
2022-12-05T05:51:16.624Z,0.00
2022-12-05T05:52:15.739Z,0.00
2022-12-05T05:53:15.930Z,0.00
2022-12-05T05:54:16.073Z,0.00
2022-12-05T05:55:16.221Z,0.00
2022-12-05T05:56:21.168Z,0.00
2022-12-05T05:57:20.527Z,0.00
2022-12-05T05:58:17.828Z,0.00
2022-12-05T05:59:17.785Z,0.00
2022-12-05T06:00:17.175Z,0.00
2022-12-05T06:01:17.308Z,0.00
2022-12-05T06:02:18.288Z,0.00
2022-12-05T06:03:17.823Z,0.00
2022-12-05T06:04:18.874Z,0.00
2022-12-05T06:05:18.104Z,0.00
2022-12-05T06:06:18.294Z,0.00
2022-12-05T06:07:19.272Z,0.00
2022-12-05T06:08:18.743Z,0.00
2022-12-05T06:09:18.816Z,0.00
2022-12-05T06:10:19.023Z,0.00
2022-12-05T06:11:25.319Z,0.00
2022-12-05T06:12:21.359Z,0.00
2022-12-05T06:13:20.302Z,0.00
2022-12-05T06:14:20.269Z,0.00
2022-12-05T06:15:19.934Z,0.00
2022-12-05T06:16:20.164Z,0.00
2022-12-05T06:17:20.258Z,0.00
2022-12-05T06:18:20.446Z,0.00
2022-12-05T06:19:20.787Z,0.00
2022-12-05T06:20:20.826Z,0.00
2022-12-05T06:21:21.770Z,0.00
2022-12-05T06:22:21.171Z,0.00
2022-12-05T06:23:21.347Z,0.00
2022-12-05T06:24:21.793Z,0.00
2022-12-05T06:25:21.694Z,0.00
2022-12-05T06:26:22.798Z,0.00
2022-12-05T06:27:22.070Z,0.00
2022-12-05T06:28:22.244Z,0.00
2022-12-05T06:29:25.696Z,0.00
2022-12-05T06:30:23.637Z,0.00
2022-12-05T06:31:22.814Z,0.00
2022-12-05T06:32:22.889Z,0.00
2022-12-05T06:33:23.804Z,0.00
2022-12-05T06:34:23.229Z,0.00
2022-12-05T06:35:24.280Z,0.00
2022-12-05T06:36:23.530Z,0.00
2022-12-05T06:37:23.677Z,0.00
2022-12-05T06:38:24.778Z,4.00
2022-12-05T06:39:24.049Z,0.00
2022-12-05T06:40:24.762Z,0.00
2022-12-05T06:41:25.420Z,0.00
2022-12-05T06:42:24.537Z,4.00
2022-12-05T06:43:24.791Z,0.00
2022-12-05T06:44:25.781Z,0.00
2022-12-05T06:45:25.870Z,0.00
2022-12-05T06:46:25.304Z,4.00
2022-12-05T06:47:25.456Z,4.00
2022-12-05T06:48:25.795Z,4.00
2022-12-05T06:49:30.688Z,4.00
2022-12-05T06:50:28.074Z,0.00
2022-12-05T06:51:26.272Z,0.00
2022-12-05T06:52:27.316Z,0.00
2022-12-05T06:53:26.805Z,4.00
2022-12-05T06:54:27.780Z,4.00
2022-12-05T06:55:27.013Z,4.00
2022-12-05T06:56:27.779Z,4.00
2022-12-05T06:57:27.420Z,4.00
2022-12-05T06:58:27.803Z,8.00
2022-12-05T06:59:28.286Z,8.00
2022-12-05T07:00:27.806Z,4.00
2022-12-05T07:01:28.830Z,8.00
2022-12-05T07:02:28.190Z,8.00
2022-12-05T07:03:28.782Z,8.00
2022-12-05T07:04:28.793Z,8.00
2022-12-05T07:05:28.550Z,8.00
2022-12-05T07:06:28.788Z,12.00
2022-12-05T07:07:28.944Z,12.00
2022-12-05T07:08:29.802Z,12.00
2022-12-05T07:09:29.798Z,16.00
2022-12-05T07:10:29.521Z,16.00
2022-12-05T07:11:29.620Z,16.00
2022-12-05T07:12:29.768Z,20.00
2022-12-05T07:13:29.938Z,20.00
2022-12-05T07:14:46.903Z,24.00
2022-12-05T07:15:32.785Z,24.00
2022-12-05T07:16:30.533Z,28.00
2022-12-05T07:17:30.683Z,32.00
2022-12-05T07:18:31.783Z,32.00
2022-12-05T07:19:31.054Z,36.00
2022-12-05T07:20:49.482Z,36.00
2022-12-05T07:21:34.282Z,40.00
2022-12-05T07:22:32.295Z,40.00
2022-12-05T07:23:32.788Z,44.00
2022-12-05T07:24:32.290Z,48.00
2022-12-05T07:25:33.207Z,48.00
2022-12-05T07:26:32.370Z,52.00
2022-12-05T07:27:32.543Z,56.00
2022-12-05T07:28:32.691Z,60.00
2022-12-05T07:29:32.833Z,64.00
2022-12-05T07:30:33.031Z,68.00
2022-12-05T07:31:33.247Z,72.00
2022-12-05T07:32:33.321Z,76.00
2022-12-05T07:33:34.295Z,80.00
2022-12-05T07:34:34.286Z,80.00
2022-12-05T07:35:33.924Z,84.00
2022-12-05T07:36:34.060Z,84.00
2022-12-05T07:37:34.193Z,84.00
2022-12-05T07:38:35.292Z,88.00
2022-12-05T07:39:34.533Z,92.00
2022-12-05T07:40:34.681Z,92.00
2022-12-05T07:41:35.790Z,96.00
2022-12-05T07:42:35.809Z,104.00
2022-12-05T07:43:35.169Z,104.00
2022-12-05T07:44:35.323Z,108.00
2022-12-05T07:45:36.335Z,112.00
2022-12-05T07:46:35.635Z,116.00
2022-12-05T07:47:36.847Z,116.00
2022-12-05T07:48:36.787Z,120.00
2022-12-05T07:49:36.193Z,124.00
2022-12-05T07:50:36.339Z,124.00
2022-12-05T07:51:36.495Z,132.00
2022-12-05T07:52:37.298Z,136.00
2022-12-05T07:53:36.790Z,144.00
2022-12-05T07:54:36.976Z,152.00
2022-12-05T07:55:37.131Z,156.00
2022-12-05T07:56:38.607Z,160.00
2022-12-05T07:57:37.415Z,168.00
2022-12-05T07:58:38.293Z,172.00
2022-12-05T07:59:37.844Z,180.00
2022-12-05T08:00:38.014Z,180.00
2022-12-05T08:01:38.234Z,188.00
2022-12-05T08:02:40.821Z,188.00
2022-12-05T08:03:39.490Z,192.00
2022-12-05T08:04:38.654Z,200.00
2022-12-05T08:05:38.846Z,200.00
2022-12-05T08:06:39.021Z,204.00
2022-12-05T08:07:39.858Z,208.00
2022-12-05T08:08:39.420Z,208.00
2022-12-05T08:09:39.601Z,212.00
2022-12-05T08:10:39.754Z,216.00
2022-12-05T08:11:39.899Z,220.00
2022-12-05T08:12:41.790Z,228.00
2022-12-05T08:13:40.795Z,232.00
2022-12-05T08:14:40.455Z,236.00
2022-12-05T08:15:41.621Z,240.00
2022-12-05T08:16:40.802Z,248.00
2022-12-05T08:17:41.797Z,256.00
2022-12-05T08:18:41.163Z,264.00
2022-12-05T08:19:42.321Z,272.00
2022-12-05T08:20:41.459Z,280.00
2022-12-05T08:21:41.625Z,280.00
2022-12-05T08:22:41.801Z,288.00
2022-12-05T08:23:42.009Z,284.00
2022-12-05T08:24:42.192Z,280.00
2022-12-05T08:25:43.338Z,276.00
2022-12-05T08:26:42.807Z,272.00
2022-12-05T08:27:42.608Z,268.00
2022-12-05T08:28:42.795Z,264.00
2022-12-05T08:29:43.800Z,264.00
2022-12-05T08:30:43.224Z,260.00
2022-12-05T08:31:43.386Z,260.00
2022-12-05T08:32:44.299Z,268.00
2022-12-05T08:33:43.718Z,272.00
2022-12-05T08:34:44.898Z,280.00
2022-12-05T08:35:44.063Z,288.00
2022-12-05T08:36:44.224Z,296.00
2022-12-05T08:37:44.400Z,304.00
2022-12-05T08:38:44.575Z,316.00
2022-12-05T08:39:44.768Z,328.00
2022-12-05T08:40:44.922Z,344.00
2022-12-05T08:41:45.102Z,360.00
2022-12-05T08:42:45.246Z,380.00
2022-12-05T08:43:46.301Z,396.00
2022-12-05T08:44:46.306Z,416.00
2022-12-05T08:45:45.745Z,432.00
2022-12-05T08:46:45.965Z,444.00
2022-12-05T08:47:46.838Z,460.00
2022-12-05T08:48:46.798Z,480.00
2022-12-05T08:49:46.313Z,500.00
2022-12-05T08:50:46.484Z,520.00
2022-12-05T08:51:46.678Z,540.00
2022-12-05T08:52:46.864Z,564.00
2022-12-05T08:53:47.014Z,580.00
2022-12-05T08:54:47.185Z,604.00
2022-12-05T08:55:47.373Z,624.00
2022-12-05T08:56:47.577Z,644.00
2022-12-05T08:57:47.727Z,660.00
2022-12-05T08:58:48.803Z,672.00
2022-12-05T08:59:48.797Z,684.00
2022-12-05T09:00:48.223Z,696.00
2022-12-05T09:01:48.846Z,708.00
2022-12-05T09:02:48.577Z,716.00
2022-12-05T09:03:49.301Z,724.00
2022-12-05T09:04:53.721Z,728.00
2022-12-05T09:05:54.715Z,736.00
2022-12-05T09:06:50.802Z,740.00
2022-12-05T09:07:49.306Z,744.00
2022-12-05T09:08:49.504Z,752.00
2022-12-05T09:09:49.681Z,756.00
2022-12-05T09:10:49.843Z,760.00
2022-12-05T09:11:49.986Z,760.00
2022-12-05T09:12:50.158Z,760.00
2022-12-05T09:13:50.319Z,760.00
2022-12-05T09:14:50.475Z,756.00
2022-12-05T09:15:50.713Z,756.00
2022-12-05T09:16:50.749Z,756.00
2022-12-05T09:17:51.805Z,756.00
2022-12-05T09:18:51.051Z,752.00
2022-12-05T09:19:51.250Z,756.00
2022-12-05T09:20:51.404Z,760.00
2022-12-05T09:21:51.573Z,760.00
2022-12-05T09:22:51.740Z,768.00
2022-12-05T09:23:52.817Z,772.00
2022-12-05T09:24:52.319Z,776.00
2022-12-05T09:25:52.236Z,780.00
2022-12-05T09:26:53.308Z,788.00
2022-12-05T09:27:53.315Z,800.00
2022-12-05T09:28:53.309Z,808.00
2022-12-05T09:29:53.001Z,824.00
2022-12-05T09:30:53.214Z,840.00
2022-12-05T09:31:54.320Z,856.00
2022-12-05T09:32:54.331Z,872.00
2022-12-05T09:33:53.718Z,888.00
2022-12-05T09:34:53.900Z,904.00
2022-12-05T09:35:54.079Z,920.00
2022-12-05T09:37:10.337Z,932.00
2022-12-05T09:37:56.419Z,948.00
2022-12-05T09:38:54.528Z,960.00
2022-12-05T09:39:54.682Z,972.00
2022-12-05T09:40:58.882Z,980.00
2022-12-05T09:41:56.316Z,996.00
2022-12-05T09:42:55.314Z,1004.00
2022-12-05T09:43:56.371Z,1012.00
2022-12-05T09:44:56.640Z,1020.00
2022-12-05T09:45:56.342Z,1028.00
2022-12-05T09:46:55.939Z,1036.00
2022-12-05T09:47:56.044Z,1040.00
2022-12-05T09:48:56.817Z,1044.00
2022-12-05T09:49:56.370Z,1040.00
2022-12-05T09:50:57.322Z,1048.00
2022-12-05T09:51:56.753Z,1052.00
2022-12-05T09:52:56.927Z,1060.00
2022-12-05T09:53:57.813Z,1064.00
2022-12-05T09:54:58.092Z,1072.00
2022-12-05T09:55:57.601Z,1088.00
2022-12-05T09:56:58.811Z,1108.00
2022-12-05T09:57:59.815Z,1120.00
2022-12-05T09:58:58.814Z,1144.00
2022-12-05T09:59:58.322Z,1160.00
2022-12-05T10:00:58.370Z,1180.00
2022-12-05T10:01:59.347Z,1192.00
2022-12-05T10:02:59.315Z,1200.00
2022-12-05T10:03:58.848Z,1204.00
2022-12-05T10:05:00.985Z,1200.00
2022-12-05T10:06:00.218Z,1184.00
2022-12-05T10:06:59.340Z,1168.00
2022-12-05T10:07:59.592Z,1152.00
2022-12-05T10:08:59.713Z,1128.00
2022-12-05T10:09:59.932Z,1108.00
2022-12-05T10:11:00.130Z,1080.00
2022-12-05T10:12:00.308Z,1056.00
2022-12-05T10:13:00.506Z,1032.00
2022-12-05T10:14:01.319Z,1012.00
2022-12-05T10:15:01.346Z,992.00
2022-12-05T10:16:01.848Z,984.00
2022-12-05T10:17:01.815Z,988.00
2022-12-05T10:18:02.317Z,996.00
2022-12-05T10:19:01.609Z,1012.00
2022-12-05T10:20:01.773Z,1028.00
2022-12-05T10:21:01.933Z,1056.00
2022-12-05T10:22:02.110Z,1076.00
2022-12-05T10:23:02.291Z,1100.00
2022-12-05T10:24:02.504Z,1124.00
2022-12-05T10:25:02.718Z,1140.00
2022-12-05T10:26:02.908Z,1156.00
2022-12-05T10:27:03.097Z,1164.00
2022-12-05T10:28:03.299Z,1164.00
2022-12-05T10:29:03.471Z,1160.00
2022-12-05T10:30:04.336Z,1148.00
2022-12-05T10:31:03.920Z,1132.00
2022-12-05T10:32:04.038Z,1124.00
2022-12-05T10:33:09.320Z,1116.00
2022-12-05T10:34:07.319Z,1108.00
2022-12-05T10:35:05.315Z,1104.00
2022-12-05T10:36:04.742Z,1100.00
2022-12-05T10:37:05.817Z,1100.00
2022-12-05T10:38:05.072Z,1096.00
2022-12-05T10:39:11.248Z,1096.00
2022-12-05T10:40:07.450Z,1104.00
2022-12-05T10:41:06.316Z,1108.00
2022-12-05T10:42:05.676Z,1112.00
2022-12-05T10:43:06.815Z,1120.00
2022-12-05T10:44:06.096Z,1128.00
2022-12-05T10:45:06.833Z,1152.00
2022-12-05T10:46:08.960Z,1184.00
2022-12-05T10:47:07.880Z,1220.00
2022-12-05T10:48:07.316Z,1256.00
2022-12-05T10:49:06.940Z,1288.00
2022-12-05T10:50:07.828Z,1324.00
2022-12-05T10:51:07.211Z,1352.00
2022-12-05T10:52:07.420Z,1380.00
2022-12-05T10:53:07.603Z,1404.00
2022-12-05T10:54:08.314Z,1412.00
2022-12-05T10:55:07.945Z,1428.00
2022-12-05T10:56:29.757Z,1428.00
2022-12-05T10:57:10.338Z,1448.00
2022-12-05T10:58:11.432Z,1472.00
2022-12-05T10:59:09.570Z,1500.00
2022-12-05T11:00:08.714Z,1528.00
2022-12-05T11:01:08.876Z,1544.00
2022-12-05T11:02:09.032Z,1552.00
2022-12-05T11:03:09.156Z,1564.00
2022-12-05T11:04:13.720Z,1568.00
2022-12-05T11:05:11.366Z,1576.00
2022-12-05T11:06:09.784Z,1596.00
2022-12-05T11:07:09.927Z,1596.00
2022-12-05T11:08:10.087Z,1604.00
2022-12-05T11:09:10.824Z,1624.00
2022-12-05T11:10:10.419Z,1640.00
2022-12-05T11:11:10.585Z,1668.00
2022-12-05T11:12:10.714Z,1744.00
2022-12-05T11:13:10.856Z,1820.00
2022-12-05T11:14:11.040Z,1880.00
2022-12-05T11:15:11.821Z,1948.00
2022-12-05T11:16:11.856Z,2000.00
2022-12-05T11:17:11.558Z,2076.00
2022-12-05T11:18:12.323Z,2144.00
2022-12-05T11:19:11.973Z,2196.00
2022-12-05T11:20:12.149Z,2256.00
2022-12-05T11:21:12.293Z,2316.00
2022-12-05T11:22:12.441Z,2356.00
2022-12-05T11:23:12.612Z,2412.00
2022-12-05T11:24:12.757Z,2464.00
2022-12-05T11:25:13.824Z,2508.00
2022-12-05T11:26:13.835Z,2524.00
2022-12-05T11:27:13.197Z,2568.00
2022-12-05T11:28:13.835Z,2608.00
2022-12-05T11:29:13.579Z,2648.00
2022-12-05T11:30:13.736Z,2668.00
2022-12-05T11:31:13.888Z,2676.00
2022-12-05T11:32:14.824Z,2644.00
2022-12-05T11:33:14.317Z,2620.00
2022-12-05T11:34:14.491Z,2612.00
2022-12-05T11:35:14.661Z,2588.00
2022-12-05T11:36:14.825Z,2572.00
2022-12-05T11:37:15.086Z,2552.00
2022-12-05T11:38:15.245Z,2536.00
2022-12-05T11:39:15.425Z,2532.00
2022-12-05T11:40:15.597Z,2504.00
2022-12-05T11:41:15.755Z,2436.00
2022-12-05T11:42:15.898Z,2340.00
2022-12-05T11:43:16.833Z,2284.00
2022-12-05T11:44:16.211Z,2204.00
2022-12-05T11:45:16.350Z,2168.00
2022-12-05T11:46:19.240Z,2184.00
2022-12-05T11:47:18.335Z,2164.00
2022-12-05T11:48:16.804Z,2144.00
2022-12-05T11:49:16.966Z,2160.00
2022-12-05T11:50:17.849Z,2132.00
2022-12-05T11:51:17.315Z,2124.00
2022-12-05T11:52:18.333Z,2092.00
2022-12-05T11:53:18.331Z,2024.00
2022-12-05T11:54:35.599Z,1976.00
2022-12-05T11:55:20.592Z,1928.00
2022-12-05T11:56:19.654Z,1896.00
2022-12-05T11:57:18.843Z,1912.00
2022-12-05T11:58:18.721Z,1892.00
2022-12-05T11:59:19.829Z,1880.00
2022-12-05T12:00:19.086Z,1832.00
2022-12-05T12:01:19.208Z,1760.00
2022-12-05T12:02:19.363Z,1724.00
2022-12-05T12:03:19.585Z,1656.00
2022-12-05T12:04:19.650Z,1584.00
2022-12-05T12:05:19.906Z,1512.00
2022-12-05T12:06:20.059Z,1440.00
2022-12-05T12:07:20.832Z,1400.00
2022-12-05T12:08:21.418Z,1368.00
2022-12-05T12:09:20.610Z,1360.00
2022-12-05T12:10:21.793Z,1368.00
2022-12-05T12:11:21.841Z,1364.00
2022-12-05T12:12:21.082Z,1344.00
2022-12-05T12:13:21.244Z,1364.00
2022-12-05T12:14:22.335Z,1400.00
2022-12-05T12:15:21.589Z,1452.00
2022-12-05T12:16:21.763Z,1468.00
2022-12-05T12:17:21.856Z,1480.00
2022-12-05T12:18:22.835Z,1488.00
2022-12-05T12:19:22.243Z,1520.00
2022-12-05T12:20:22.416Z,1496.00
2022-12-05T12:21:22.582Z,1428.00
2022-12-05T12:22:22.760Z,1352.00
2022-12-05T12:23:22.932Z,1260.00
2022-12-05T12:24:23.121Z,1064.00
2022-12-05T12:25:23.329Z,912.00
2022-12-05T12:26:24.350Z,828.00
2022-12-05T12:27:24.332Z,772.00
2022-12-05T12:28:23.858Z,728.00
2022-12-05T12:29:24.061Z,700.00
2022-12-05T12:30:24.287Z,680.00
2022-12-05T12:31:24.531Z,688.00
2022-12-05T12:32:24.658Z,704.00
2022-12-05T12:33:27.299Z,740.00
2022-12-05T12:34:26.045Z,776.00
2022-12-05T12:35:25.886Z,824.00
2022-12-05T12:36:25.402Z,852.00
2022-12-05T12:37:25.551Z,932.00
2022-12-05T12:38:26.342Z,1016.00
2022-12-05T12:39:25.899Z,1048.00
2022-12-05T12:40:26.105Z,1068.00
2022-12-05T12:41:26.272Z,1092.00
2022-12-05T12:42:27.339Z,1136.00
2022-12-05T12:43:52.846Z,1200.00
2022-12-05T12:44:28.853Z,1236.00
2022-12-05T12:45:27.941Z,1252.00
2022-12-05T12:46:27.878Z,1252.00
2022-12-05T12:47:27.828Z,1252.00
2022-12-05T12:48:28.480Z,1268.00
2022-12-05T12:49:27.658Z,1288.00
2022-12-05T12:50:27.885Z,1312.00
2022-12-05T12:51:28.106Z,1348.00
2022-12-05T12:52:28.306Z,1372.00